PWSweather.com
Personal Weather Stations
Station Observations
CARNOUSTIE
Pambride, CarnoustieGB DD7 6DY

PambrideCarnoustieGB DD7 6DY

Lat: 56.50889, Lon: -2.7051

Elevation: 105

Station Type: Oregon Scientific WMR200

www.carnoustieweather.co.uk

High Low Average
Temperature 90.1°F32.3°C 55.8°F13.2°C 69.2°F20.7°C
Dew Point 64.1°F17.8°C 49.3°F9.6°C 56.7°F13.7°C
Winds 11.5 mph 18.5 kmh Calm Calm 5.0 mph SSW8.0 kmh SSW
Wind Gusts 13.8 mph22.2 kmh -- 6.0 mph9.7 kmh
Humidity 95% 39% 68%
Pressure 30.06 in1017.9 mb 29.82 in1009.8 mb -
Precipitation 0.00 in0.0 mm - -
Hour Temp Dew Point Humidity Winds Wind Gusts Pressure Precip Precip Rate Daily Precip Total
12:00 AM 59.7°F15.4°C 56.8°F13.8°C 90% 4.6 mph NE7.4 kmh NE 5.8 mph9.3 kmh 30.03 in1016.9 mb - 0.00 in0.0 mm 0.00 in0.0 mm
12:10 AM 59.5°F15.3°C 56.6°F13.7°C 90% 3.5 mph NNE5.6 kmh NNE 5.8 mph9.3 kmh 30.03 in1016.9 mb - 0.00 in0.0 mm 0.00 in0.0 mm
12:20 AM 59.4°F15.2°C 56.7°F13.7°C 91% 3.5 mph N5.6 kmh N 3.5 mph5.6 kmh 30.03 in1016.9 mb - 0.00 in0.0 mm 0.00 in0.0 mm
12:30 AM 59.4°F15.2°C 56.7°F13.7°C 91% 4.6 mph NNE7.4 kmh NNE 4.6 mph7.4 kmh 30.03 in1016.9 mb - 0.00 in0.0 mm 0.00 in0.0 mm
12:40 AM 59.2°F15.1°C 56.6°F13.7°C 91% 4.6 mph NNE7.4 kmh NNE 5.8 mph9.3 kmh 30.03 in1016.9 mb - 0.00 in0.0 mm 0.00 in0.0 mm
12:50 AM 59.2°F15.1°C 56.6°F13.7°C 91% 4.6 mph NNE7.4 kmh NNE 4.6 mph7.4 kmh 30.03 in1016.9 mb - 0.00 in0.0 mm 0.00 in0.0 mm
01:00 AM 59.0°F15.0°C 56.4°F13.6°C 91% 3.5 mph NE5.6 kmh NE 3.5 mph5.6 kmh 30.03 in1016.9 mb - 0.00 in0.0 mm 0.00 in0.0 mm
01:10 AM 58.6°F14.8°C 56.0°F13.3°C 91% 3.5 mph NE5.6 kmh NE 3.5 mph5.6 kmh 30.03 in1016.9 mb - 0.00 in0.0 mm 0.00 in0.0 mm
01:20 AM 58.1°F14.5°C 55.5°F13.1°C 91% 4.6 mph NE7.4 kmh NE 4.6 mph7.4 kmh 30.03 in1016.9 mb - 0.00 in0.0 mm 0.00 in0.0 mm
01:30 AM 57.9°F14.4°C 55.6°F13.1°C 92% 3.5 mph NE5.6 kmh NE 3.5 mph5.6 kmh 30.03 in1016.9 mb - 0.00 in0.0 mm 0.00 in0.0 mm
01:40 AM 57.6°F14.2°C 55.3°F12.9°C 92% 3.5 mph N5.6 kmh N 4.6 mph7.4 kmh 30.03 in1016.9 mb - 0.00 in0.0 mm 0.00 in0.0 mm
01:50 AM 57.2°F14.0°C 54.9°F12.7°C 92% 4.6 mph N7.4 kmh N 4.6 mph7.4 kmh 30.03 in1016.9 mb - 0.00 in0.0 mm 0.00 in0.0 mm
02:00 AM 56.8°F13.8°C 54.8°F12.7°C 93% 3.5 mph 5.6 kmh 4.6 mph7.4 kmh 30.03 in1016.9 mb - 0.00 in0.0 mm 0.00 in0.0 mm
02:10 AM 56.5°F13.6°C 54.5°F12.5°C 93% 3.5 mph N5.6 kmh N 4.6 mph7.4 kmh 30.03 in1016.9 mb - 0.00 in0.0 mm 0.00 in0.0 mm
02:20 AM 56.3°F13.5°C 54.3°F12.4°C 93% 4.6 mph N7.4 kmh N 4.6 mph7.4 kmh 30.03 in1016.9 mb - 0.00 in0.0 mm 0.00 in0.0 mm
02:30 AM 56.1°F13.4°C 54.4°F12.4°C 94% 4.6 mph 7.4 kmh 5.8 mph9.3 kmh 30.03 in1016.9 mb - 0.00 in0.0 mm 0.00 in0.0 mm
02:40 AM 55.9°F13.3°C 54.2°F12.3°C 94% 3.5 mph N5.6 kmh N 5.8 mph9.3 kmh 30.03 in1016.9 mb - 0.00 in0.0 mm 0.00 in0.0 mm
02:50 AM 55.8°F13.2°C 54.1°F12.3°C 94% 4.6 mph N7.4 kmh N 5.8 mph9.3 kmh 30.03 in1016.9 mb - 0.00 in0.0 mm 0.00 in0.0 mm
03:00 AM 55.9°F13.3°C 54.5°F12.5°C 95% 3.5 mph NNE5.6 kmh NNE 5.8 mph9.3 kmh 30.03 in1016.9 mb - 0.00 in0.0 mm 0.00 in0.0 mm
03:10 AM 55.9°F13.3°C 54.5°F12.5°C 95% 4.6 mph NNW7.4 kmh NNW 4.6 mph7.4 kmh 30.03 in1016.9 mb - 0.00 in0.0 mm 0.00 in0.0 mm
03:20 AM 56.1°F13.4°C 54.7°F12.6°C 95% 3.5 mph N5.6 kmh N 3.5 mph5.6 kmh 30.03 in1016.9 mb - 0.00 in0.0 mm 0.00 in0.0 mm
03:30 AM 56.3°F13.5°C 54.9°F12.7°C 95% 3.5 mph NNE5.6 kmh NNE 4.6 mph7.4 kmh 30.03 in1016.9 mb - 0.00 in0.0 mm 0.00 in0.0 mm
03:40 AM 56.6°F13.7°C 55.2°F12.9°C 95% 2.3 mph NE3.7 kmh NE 3.5 mph5.6 kmh 30.03 in1016.9 mb - 0.00 in0.0 mm 0.00 in0.0 mm
03:50 AM 56.7°F13.7°C 55.2°F12.9°C 95% 2.3 mph NW3.7 kmh NW 2.3 mph3.7 kmh 30.03 in1016.9 mb - 0.00 in0.0 mm 0.00 in0.0 mm
04:00 AM 56.8°F13.8°C 55.4°F13.0°C 95% 2.3 mph NW3.7 kmh NW 2.3 mph3.7 kmh 30.03 in1016.9 mb - 0.00 in0.0 mm 0.00 in0.0 mm
04:10 AM 56.8°F13.8°C 55.4°F13.0°C 95% 2.3 mph N3.7 kmh N 3.5 mph5.6 kmh 30.03 in1016.9 mb - 0.00 in0.0 mm 0.00 in0.0 mm
04:20 AM 56.8°F13.8°C 55.4°F13.0°C 95% 3.5 mph NNW5.6 kmh NNW 4.6 mph7.4 kmh 30.03 in1016.9 mb - 0.00 in0.0 mm 0.00 in0.0 mm
04:30 AM 57.2°F14.0°C 55.5°F13.1°C 94% 4.6 mph N7.4 kmh N 4.6 mph7.4 kmh 30.03 in1016.9 mb - 0.00 in0.0 mm 0.00 in0.0 mm
04:40 AM 57.4°F14.1°C 55.7°F13.2°C 94% 3.5 mph N5.6 kmh N 4.6 mph7.4 kmh 30.03 in1016.9 mb - 0.00 in0.0 mm 0.00 in0.0 mm
04:50 AM 57.6°F14.2°C 55.8°F13.2°C 94% 4.6 mph N7.4 kmh N 5.8 mph9.3 kmh 30.03 in1016.9 mb - 0.00 in0.0 mm 0.00 in0.0 mm
05:00 AM 57.6°F14.2°C 55.8°F13.2°C 94% 3.5 mph N5.6 kmh N 5.8 mph9.3 kmh 30.03 in1016.9 mb - 0.00 in0.0 mm 0.00 in0.0 mm
05:10 AM 57.9°F14.4°C 56.2°F13.4°C 94% 3.5 mph N5.6 kmh N 4.6 mph7.4 kmh 30.03 in1016.9 mb - 0.00 in0.0 mm 0.00 in0.0 mm
05:20 AM 58.1°F14.5°C 56.4°F13.6°C 94% 3.5 mph N5.6 kmh N 5.8 mph9.3 kmh 30.03 in1016.9 mb - 0.00 in0.0 mm 0.00 in0.0 mm
05:30 AM 58.5°F14.7°C 56.7°F13.7°C 94% 3.5 mph NNW5.6 kmh NNW 3.5 mph5.6 kmh 30.03 in1016.9 mb - 0.00 in0.0 mm 0.00 in0.0 mm
05:40 AM 58.9°F14.9°C 57.1°F13.9°C 94% 3.5 mph N5.6 kmh N 3.5 mph5.6 kmh 30.03 in1016.9 mb - 0.00 in0.0 mm 0.00 in0.0 mm
05:50 AM 59.4°F15.2°C 57.6°F14.2°C 94% 3.5 mph N5.6 kmh N 3.5 mph5.6 kmh 30.03 in1016.9 mb - 0.00 in0.0 mm 0.00 in0.0 mm
06:00 AM 60.0°F15.6°C 58.0°F14.4°C 93% 3.5 mph NNW5.6 kmh NNW 4.6 mph7.4 kmh 30.03 in1016.9 mb - 0.00 in0.0 mm 0.00 in0.0 mm
06:10 AM 60.6°F15.9°C 58.6°F14.8°C 93% 3.5 mph N5.6 kmh N 4.6 mph7.4 kmh 30.03 in1016.9 mb - 0.00 in0.0 mm 0.00 in0.0 mm
06:20 AM 61.4°F16.3°C 59.1°F15.1°C 92% 3.5 mph NW5.6 kmh NW 4.6 mph7.4 kmh 30.03 in1016.9 mb - 0.00 in0.0 mm 0.00 in0.0 mm
06:30 AM 63.4°F17.4°C 60.7°F15.9°C 91% 2.3 mph NNW3.7 kmh NNW 4.6 mph7.4 kmh 30.03 in1016.9 mb - 0.00 in0.0 mm 0.00 in0.0 mm
06:40 AM 65.3°F18.5°C 62.3°F16.8°C 90% 3.5 mph NW5.6 kmh NW 3.5 mph5.6 kmh 30.03 in1016.9 mb - 0.00 in0.0 mm 0.00 in0.0 mm
06:50 AM 66.6°F19.2°C 62.3°F16.8°C 86% 2.3 mph NW3.7 kmh NW 2.3 mph3.7 kmh 30.03 in1016.9 mb - 0.00 in0.0 mm 0.00 in0.0 mm
07:00 AM 68.0°F20.0°C 62.6°F17.0°C 83% 3.5 mph WNW5.6 kmh WNW 3.5 mph5.6 kmh 30.03 in1016.9 mb - 0.00 in0.0 mm 0.00 in0.0 mm
07:10 AM 69.4°F20.8°C 63.0°F17.2°C 80% 1.2 mph ENE1.9 kmh ENE 2.3 mph3.7 kmh 30.03 in1016.9 mb - 0.00 in0.0 mm 0.00 in0.0 mm
07:20 AM 70.9°F21.6°C 63.7°F17.6°C 78% 2.3 mph S3.7 kmh S 4.6 mph7.4 kmh 30.03 in1016.9 mb - 0.00 in0.0 mm 0.00 in0.0 mm
07:30 AM 71.7°F22.1°C 63.4°F17.4°C 75% 2.3 mph SE3.7 kmh SE 3.5 mph5.6 kmh 30.03 in1016.9 mb - 0.00 in0.0 mm 0.00 in0.0 mm
07:40 AM 71.4°F21.9°C 62.3°F16.8°C 73% 4.6 mph S7.4 kmh S 5.8 mph9.3 kmh 30.03 in1016.9 mb - 0.00 in0.0 mm 0.00 in0.0 mm
07:50 AM 72.4°F22.4°C 63.6°F17.6°C 74% 3.5 mph S5.6 kmh S 4.6 mph7.4 kmh 30.03 in1016.9 mb - 0.00 in0.0 mm 0.00 in0.0 mm
08:00 AM 73.0°F22.8°C 63.0°F17.2°C 71% 2.3 mph SSE3.7 kmh SSE 2.3 mph3.7 kmh 30.03 in1016.9 mb - 0.00 in0.0 mm 0.00 in0.0 mm
08:10 AM 73.9°F23.3°C 63.5°F17.5°C 70% 2.3 mph SSE3.7 kmh SSE 3.5 mph5.6 kmh 30.00 in1015.9 mb - 0.00 in0.0 mm 0.00 in0.0 mm
08:20 AM 75.0°F23.9°C 63.7°F17.6°C 68% 3.5 mph S5.6 kmh S 5.8 mph9.3 kmh 30.03 in1016.9 mb - 0.00 in0.0 mm 0.00 in0.0 mm
08:30 AM 74.9°F23.8°C 62.8°F17.1°C 66% 3.5 mph S5.6 kmh S 5.8 mph9.3 kmh 30.03 in1016.9 mb - 0.00 in0.0 mm 0.00 in0.0 mm
08:40 AM 74.7°F23.7°C 63.0°F17.2°C 67% 2.3 mph SSE3.7 kmh SSE 3.5 mph5.6 kmh 30.06 in1017.9 mb - 0.00 in0.0 mm 0.00 in0.0 mm
08:50 AM 74.6°F23.7°C 62.5°F16.9°C 66% 2.3 mph S3.7 kmh S 4.6 mph7.4 kmh 30.03 in1016.9 mb - 0.00 in0.0 mm 0.00 in0.0 mm
09:00 AM 75.4°F24.1°C 63.2°F17.3°C 66% 3.5 mph SSE5.6 kmh SSE 5.8 mph9.3 kmh 30.03 in1016.9 mb - 0.00 in0.0 mm 0.00 in0.0 mm
09:10 AM 74.6°F23.7°C 62.5°F16.9°C 66% 2.3 mph SSE3.7 kmh SSE 2.3 mph3.7 kmh 30.03 in1016.9 mb - 0.00 in0.0 mm 0.00 in0.0 mm
09:20 AM 75.5°F24.2°C 62.9°F17.2°C 65% 3.5 mph SSE5.6 kmh SSE 4.6 mph7.4 kmh 30.03 in1016.9 mb - 0.00 in0.0 mm 0.00 in0.0 mm
09:30 AM 76.0°F24.4°C 63.4°F17.4°C 65% 3.5 mph S5.6 kmh S 3.5 mph5.6 kmh 30.03 in1016.9 mb - 0.00 in0.0 mm 0.00 in0.0 mm
09:40 AM 76.7°F24.8°C 62.7°F17.1°C 62% 2.3 mph S3.7 kmh S 4.6 mph7.4 kmh 30.03 in1016.9 mb - 0.00 in0.0 mm 0.00 in0.0 mm
09:50 AM 77.0°F25.0°C 62.6°F17.0°C 61% 3.5 mph S5.6 kmh S 5.8 mph9.3 kmh 30.00 in1015.9 mb - 0.00 in0.0 mm 0.00 in0.0 mm
10:00 AM 78.6°F25.9°C 63.1°F17.3°C 59% 3.5 mph S5.6 kmh S 8.1 mph13.0 kmh 30.00 in1015.9 mb - 0.00 in0.0 mm 0.00 in0.0 mm
10:10 AM 78.0°F25.6°C 61.1°F16.2°C 56% 4.6 mph WSW7.4 kmh WSW 5.8 mph9.3 kmh 30.00 in1015.9 mb - 0.00 in0.0 mm 0.00 in0.0 mm
10:20 AM 77.2°F25.1°C 60.2°F15.7°C 56% 4.6 mph SSE7.4 kmh SSE 6.9 mph11.1 kmh 30.03 in1016.9 mb - 0.00 in0.0 mm 0.00 in0.0 mm
10:30 AM 77.1°F25.1°C 60.7°F15.9°C 57% 3.5 mph S5.6 kmh S 4.6 mph7.4 kmh 30.03 in1016.9 mb - 0.00 in0.0 mm 0.00 in0.0 mm
10:40 AM 78.0°F25.6°C 62.1°F16.7°C 58% 2.3 mph S3.7 kmh S 4.6 mph7.4 kmh 30.00 in1015.9 mb - 0.00 in0.0 mm 0.00 in0.0 mm
10:50 AM 78.1°F25.6°C 59.1°F15.1°C 52% 2.3 mph S3.7 kmh S 4.6 mph7.4 kmh 30.00 in1015.9 mb - 0.00 in0.0 mm 0.00 in0.0 mm
11:00 AM 78.8°F26.0°C 63.3°F17.4°C 59% 4.6 mph SSE7.4 kmh SSE 9.2 mph14.8 kmh 30.00 in1015.9 mb - 0.00 in0.0 mm 0.00 in0.0 mm
11:10 AM 78.2°F25.7°C 64.1°F17.8°C 62% 4.6 mph SSE7.4 kmh SSE 6.9 mph11.1 kmh 30.03 in1016.9 mb - 0.00 in0.0 mm 0.00 in0.0 mm
11:20 AM 78.5°F25.8°C 63.0°F17.2°C 59% 5.8 mph S9.3 kmh S 6.9 mph11.1 kmh 30.03 in1016.9 mb - 0.00 in0.0 mm 0.00 in0.0 mm
11:30 AM 79.7°F26.5°C 63.6°F17.6°C 58% 4.6 mph SE7.4 kmh SE 5.8 mph9.3 kmh 30.03 in1016.9 mb - 0.00 in0.0 mm 0.00 in0.0 mm
11:40 AM 80.5°F26.9°C 63.4°F17.4°C 56% 4.6 mph SSE7.4 kmh SSE 6.9 mph11.1 kmh 30.03 in1016.9 mb - 0.00 in0.0 mm 0.00 in0.0 mm
11:50 AM 81.1°F27.3°C 62.4°F16.9°C 53% 4.6 mph S7.4 kmh S 6.9 mph11.1 kmh 30.00 in1015.9 mb - 0.00 in0.0 mm 0.00 in0.0 mm
12:00 PM 81.5°F27.5°C 61.6°F16.4°C 51% 4.6 mph SSE7.4 kmh SSE 6.9 mph11.1 kmh 30.00 in1015.9 mb - 0.00 in0.0 mm 0.00 in0.0 mm
12:10 PM 82.2°F27.9°C 61.7°F16.5°C 50% 4.6 mph SE7.4 kmh SE 3.5 mph5.6 kmh 30.00 in1015.9 mb - 0.00 in0.0 mm 0.00 in0.0 mm
12:20 PM 80.6°F27.0°C 60.3°F15.7°C 50% 2.3 mph SSE3.7 kmh SSE 3.5 mph5.6 kmh 30.00 in1015.9 mb - 0.00 in0.0 mm 0.00 in0.0 mm
12:30 PM 77.7°F25.4°C 59.2°F15.1°C 53% 3.5 mph SE5.6 kmh SE 4.6 mph7.4 kmh 30.00 in1015.9 mb - 0.00 in0.0 mm 0.00 in0.0 mm
12:40 PM 77.0°F25.0°C 59.1°F15.1°C 54% 2.3 mph S3.7 kmh S 3.5 mph5.6 kmh 29.97 in1014.9 mb - 0.00 in0.0 mm 0.00 in0.0 mm
12:50 PM 78.6°F25.9°C 61.1°F16.2°C 55% 3.5 mph SE5.6 kmh SE 5.8 mph9.3 kmh 29.97 in1014.9 mb - 0.00 in0.0 mm 0.00 in0.0 mm
01:00 PM 79.3°F26.3°C 60.7°F15.9°C 53% 4.6 mph SE7.4 kmh SE 5.8 mph9.3 kmh 29.97 in1014.9 mb - 0.00 in0.0 mm 0.00 in0.0 mm
01:10 PM 78.3°F25.7°C 59.7°F15.4°C 53% 4.6 mph SE7.4 kmh SE 5.8 mph9.3 kmh 29.97 in1014.9 mb - 0.00 in0.0 mm 0.00 in0.0 mm
01:20 PM 77.2°F25.1°C 59.2°F15.1°C 54% 3.5 mph SE5.6 kmh SE 3.5 mph5.6 kmh 29.94 in1013.9 mb - 0.00 in0.0 mm 0.00 in0.0 mm
01:30 PM 76.9°F24.9°C 59.5°F15.3°C 55% 3.5 mph SSE5.6 kmh SSE 4.6 mph7.4 kmh 29.94 in1013.9 mb - 0.00 in0.0 mm 0.00 in0.0 mm
01:40 PM 78.7°F25.9°C 60.6°F15.9°C 54% 4.6 mph SSE7.4 kmh SSE 6.9 mph11.1 kmh 29.94 in1013.9 mb - 0.00 in0.0 mm 0.00 in0.0 mm
01:50 PM 78.1°F25.6°C 59.6°F15.3°C 53% 3.5 mph SSE5.6 kmh SSE 4.6 mph7.4 kmh 29.97 in1014.9 mb - 0.00 in0.0 mm 0.00 in0.0 mm
02:00 PM 81.0°F27.2°C 60.6°F15.9°C 50% 4.6 mph S7.4 kmh S 5.8 mph9.3 kmh 29.97 in1014.9 mb - 0.00 in0.0 mm 0.00 in0.0 mm
02:10 PM 83.0°F28.3°C 61.3°F16.3°C 48% 3.5 mph SE5.6 kmh SE 4.6 mph7.4 kmh 29.97 in1014.9 mb - 0.00 in0.0 mm 0.00 in0.0 mm
02:20 PM 84.4°F29.1°C 61.3°F16.3°C 46% 3.5 mph S5.6 kmh S 4.6 mph7.4 kmh 29.97 in1014.9 mb - 0.00 in0.0 mm 0.00 in0.0 mm
02:30 PM 88.2°F31.2°C 62.2°F16.8°C 42% 4.6 mph SE7.4 kmh SE 8.1 mph13.0 kmh 29.97 in1014.9 mb - 0.00 in0.0 mm 0.00 in0.0 mm
02:40 PM 88.8°F31.6°C 62.7°F17.1°C 42% 4.6 mph SE7.4 kmh SE 5.8 mph9.3 kmh 29.97 in1014.9 mb - 0.00 in0.0 mm 0.00 in0.0 mm
02:50 PM 90.1°F32.3°C 61.8°F16.6°C 39% 3.5 mph SE5.6 kmh SE 5.8 mph9.3 kmh 29.94 in1013.9 mb - 0.00 in0.0 mm 0.00 in0.0 mm
03:00 PM 86.9°F30.5°C 59.7°F15.4°C 40% 4.6 mph SSE7.4 kmh SSE 6.9 mph11.1 kmh 29.94 in1013.9 mb - 0.00 in0.0 mm 0.00 in0.0 mm
03:10 PM 83.8°F28.8°C 58.3°F14.6°C 42% 3.5 mph SSE5.6 kmh SSE 4.6 mph7.4 kmh 29.94 in1013.9 mb - 0.00 in0.0 mm 0.00 in0.0 mm
03:20 PM 77.8°F25.4°C 54.1°F12.3°C 44% 2.3 mph SSW3.7 kmh SSW 4.6 mph7.4 kmh 29.94 in1013.9 mb - 0.00 in0.0 mm 0.00 in0.0 mm
03:30 PM 76.6°F24.8°C 57.1°F13.9°C 51% 4.6 mph SSW7.4 kmh SSW 5.8 mph9.3 kmh 29.94 in1013.9 mb - 0.00 in0.0 mm 0.00 in0.0 mm
03:40 PM 74.4°F23.6°C 56.7°F13.7°C 54% 2.3 mph S3.7 kmh S 5.8 mph9.3 kmh 29.91 in1012.9 mb - 0.00 in0.0 mm 0.00 in0.0 mm
03:50 PM 74.4°F23.6°C 59.1°F15.1°C 59% 3.5 mph S5.6 kmh S 5.8 mph9.3 kmh 29.91 in1012.9 mb - 0.00 in0.0 mm 0.00 in0.0 mm
04:00 PM 78.9°F26.1°C 60.9°F16.1°C 54% 3.5 mph SSW5.6 kmh SSW 3.5 mph5.6 kmh 29.91 in1012.9 mb - 0.00 in0.0 mm 0.00 in0.0 mm
04:10 PM 77.3°F25.2°C 56.1°F13.4°C 48% 5.8 mph WSW9.3 kmh WSW 10.4 mph16.7 kmh 29.91 in1012.9 mb - 0.00 in0.0 mm 0.00 in0.0 mm
04:20 PM 76.8°F24.9°C 54.5°F12.5°C 46% 8.1 mph SW13.0 kmh SW 9.2 mph14.8 kmh 29.91 in1012.9 mb - 0.00 in0.0 mm 0.00 in0.0 mm
04:30 PM 79.5°F26.4°C 55.1°F12.8°C 43% 6.9 mph W11.1 kmh W 10.4 mph16.7 kmh 29.91 in1012.9 mb - 0.00 in0.0 mm 0.00 in0.0 mm
04:40 PM 80.9°F27.2°C 55.6°F13.1°C 42% 4.6 mph SW7.4 kmh SW 6.9 mph11.1 kmh 29.91 in1012.9 mb - 0.00 in0.0 mm 0.00 in0.0 mm
04:50 PM 79.1°F26.2°C 53.4°F11.9°C 41% 10.4 mph W16.7 kmh W 12.7 mph20.4 kmh 29.91 in1012.9 mb - 0.00 in0.0 mm 0.00 in0.0 mm
05:00 PM 77.3°F25.2°C 52.4°F11.3°C 42% 10.4 mph WSW16.7 kmh WSW 11.5 mph18.5 kmh 29.91 in1012.9 mb - 0.00 in0.0 mm 0.00 in0.0 mm
05:10 PM 78.3°F25.7°C 53.3°F11.8°C 42% 8.1 mph W13.0 kmh W 11.5 mph18.5 kmh 29.88 in1011.9 mb - 0.00 in0.0 mm 0.00 in0.0 mm
05:20 PM 78.1°F25.6°C 53.1°F11.7°C 42% 8.1 mph WSW13.0 kmh WSW 9.2 mph14.8 kmh 29.88 in1011.9 mb - 0.00 in0.0 mm 0.00 in0.0 mm
05:30 PM 78.8°F26.0°C 53.8°F12.1°C 42% 8.1 mph WSW13.0 kmh WSW 11.5 mph18.5 kmh 29.88 in1011.9 mb - 0.00 in0.0 mm 0.00 in0.0 mm
05:40 PM 78.0°F25.6°C 53.0°F11.7°C 42% 8.1 mph WSW13.0 kmh WSW 10.4 mph16.7 kmh 29.86 in1011.2 mb - 0.00 in0.0 mm 0.00 in0.0 mm
05:50 PM 77.4°F25.2°C 52.5°F11.4°C 42% 11.5 mph WSW18.5 kmh WSW 13.8 mph22.2 kmh 29.86 in1011.2 mb - 0.00 in0.0 mm 0.00 in0.0 mm
06:00 PM 76.8°F24.9°C 52.6°F11.4°C 43% 8.1 mph W13.0 kmh W 9.2 mph14.8 kmh 29.86 in1011.2 mb - 0.00 in0.0 mm 0.00 in0.0 mm
06:10 PM 76.3°F24.6°C 52.2°F11.2°C 43% 9.2 mph WSW14.8 kmh WSW 13.8 mph22.2 kmh 29.86 in1011.2 mb - 0.00 in0.0 mm 0.00 in0.0 mm
06:20 PM 76.0°F24.4°C 51.9°F11.1°C 43% 4.6 mph WSW7.4 kmh WSW 6.9 mph11.1 kmh 29.86 in1011.2 mb - 0.00 in0.0 mm 0.00 in0.0 mm
06:30 PM 75.7°F24.3°C 51.6°F10.9°C 43% 6.9 mph WSW11.1 kmh WSW 12.7 mph20.4 kmh 29.86 in1011.2 mb - 0.00 in0.0 mm 0.00 in0.0 mm
06:40 PM 75.2°F24.0°C 51.8°F11.0°C 44% 6.9 mph WSW11.1 kmh WSW 9.2 mph14.8 kmh 29.86 in1011.2 mb - 0.00 in0.0 mm 0.00 in0.0 mm
06:50 PM 74.9°F23.8°C 52.2°F11.2°C 45% 5.8 mph W9.3 kmh W 8.1 mph13.0 kmh 29.86 in1011.2 mb - 0.00 in0.0 mm 0.00 in0.0 mm
07:00 PM 73.7°F23.2°C 51.0°F10.6°C 45% 6.9 mph W11.1 kmh W 8.1 mph13.0 kmh 29.86 in1011.2 mb - 0.00 in0.0 mm 0.00 in0.0 mm
07:10 PM 71.5°F21.9°C 50.3°F10.2°C 47% 5.8 mph WSW9.3 kmh WSW 6.9 mph11.1 kmh 29.86 in1011.2 mb - 0.00 in0.0 mm 0.00 in0.0 mm
07:20 PM 70.1°F21.2°C 50.6°F10.3°C 50% 5.8 mph WSW9.3 kmh WSW 9.2 mph14.8 kmh 29.82 in1009.8 mb - 0.00 in0.0 mm 0.00 in0.0 mm
07:30 PM 68.9°F20.5°C 50.5°F10.3°C 52% 8.1 mph W13.0 kmh W 13.8 mph22.2 kmh 29.82 in1009.8 mb - 0.00 in0.0 mm 0.00 in0.0 mm
07:40 PM 67.8°F19.9°C 51.0°F10.6°C 55% 9.2 mph WSW14.8 kmh WSW 10.4 mph16.7 kmh 29.86 in1011.2 mb - 0.00 in0.0 mm 0.00 in0.0 mm
07:50 PM 66.9°F19.4°C 50.2°F10.1°C 55% 8.1 mph W13.0 kmh W 10.4 mph16.7 kmh 29.86 in1011.2 mb - 0.00 in0.0 mm 0.00 in0.0 mm
08:00 PM 66.2°F19.0°C 50.0°F10.0°C 56% 6.9 mph W11.1 kmh W 10.4 mph16.7 kmh 29.86 in1011.2 mb - 0.00 in0.0 mm 0.00 in0.0 mm
08:10 PM 65.5°F18.6°C 49.8°F9.9°C 57% 6.9 mph W11.1 kmh W 9.2 mph14.8 kmh 29.86 in1011.2 mb - 0.00 in0.0 mm 0.00 in0.0 mm
08:20 PM 64.9°F18.3°C 49.3°F9.6°C 57% 4.6 mph W7.4 kmh W 5.8 mph9.3 kmh 29.86 in1011.2 mb - 0.00 in0.0 mm 0.00 in0.0 mm
08:30 PM 64.4°F18.0°C 49.8°F9.9°C 59% 8.1 mph W13.0 kmh W 10.4 mph16.7 kmh 29.86 in1011.2 mb - 0.00 in0.0 mm 0.00 in0.0 mm
08:40 PM 64.0°F17.8°C 49.9°F9.9°C 60% 6.9 mph WSW11.1 kmh WSW 8.1 mph13.0 kmh 29.86 in1011.2 mb - 0.00 in0.0 mm 0.00 in0.0 mm
08:50 PM 63.9°F17.7°C 50.6°F10.3°C 62% 8.1 mph WSW13.0 kmh WSW 10.4 mph16.7 kmh 29.86 in1011.2 mb - 0.00 in0.0 mm 0.00 in0.0 mm
09:00 PM 63.5°F17.5°C 51.1°F10.6°C 64% 6.9 mph W11.1 kmh W 8.1 mph13.0 kmh 29.86 in1011.2 mb - 0.00 in0.0 mm 0.00 in0.0 mm
09:10 PM 63.3°F17.4°C 51.4°F10.8°C 65% 8.1 mph WSW13.0 kmh WSW 9.2 mph14.8 kmh 29.86 in1011.2 mb - 0.00 in0.0 mm 0.00 in0.0 mm
09:20 PM 63.1°F17.3°C 52.0°F11.1°C 67% 6.9 mph W11.1 kmh W 9.2 mph14.8 kmh 29.86 in1011.2 mb - 0.00 in0.0 mm 0.00 in0.0 mm
09:30 PM 63.0°F17.2°C 52.2°F11.2°C 68% 6.9 mph W11.1 kmh W 8.1 mph13.0 kmh 29.86 in1011.2 mb - 0.00 in0.0 mm 0.00 in0.0 mm
09:40 PM 62.8°F17.1°C 52.1°F11.2°C 68% 4.6 mph W7.4 kmh W 6.9 mph11.1 kmh 29.86 in1011.2 mb - 0.00 in0.0 mm 0.00 in0.0 mm
09:50 PM 62.6°F17.0°C 51.9°F11.1°C 68% 8.1 mph WSW13.0 kmh WSW 11.5 mph18.5 kmh 29.86 in1011.2 mb - 0.00 in0.0 mm 0.00 in0.0 mm
10:00 PM 62.3°F16.8°C 51.6°F10.9°C 68% 6.9 mph W11.1 kmh W 8.1 mph13.0 kmh 29.86 in1011.2 mb - 0.00 in0.0 mm 0.00 in0.0 mm
10:10 PM 62.1°F16.7°C 51.8°F11.0°C 69% 6.9 mph W11.1 kmh W 8.1 mph13.0 kmh 29.86 in1011.2 mb - 0.00 in0.0 mm 0.00 in0.0 mm
10:20 PM 61.7°F16.5°C 51.4°F10.8°C 69% 4.6 mph W7.4 kmh W 6.9 mph11.1 kmh 29.86 in1011.2 mb - 0.00 in0.0 mm 0.00 in0.0 mm
10:30 PM 61.3°F16.3°C 51.5°F10.8°C 70% 4.6 mph W7.4 kmh W 5.8 mph9.3 kmh 29.86 in1011.2 mb - 0.00 in0.0 mm 0.00 in0.0 mm
10:40 PM 61.0°F16.1°C 51.1°F10.6°C 70% 4.6 mph W7.4 kmh W 5.8 mph9.3 kmh 29.82 in1009.8 mb - 0.00 in0.0 mm 0.00 in0.0 mm
10:50 PM 60.5°F15.8°C 51.0°F10.6°C 71% 5.8 mph WNW9.3 kmh WNW 6.9 mph11.1 kmh 29.86 in1011.2 mb - 0.00 in0.0 mm 0.00 in0.0 mm
11:00 PM 60.3°F15.7°C 51.2°F10.7°C 72% 3.5 mph W5.6 kmh W 3.5 mph5.6 kmh 29.86 in1011.2 mb - 0.00 in0.0 mm 0.00 in0.0 mm
11:10 PM 59.9°F15.5°C 50.9°F10.5°C 72% 3.5 mph W5.6 kmh W 4.6 mph7.4 kmh 29.86 in1011.2 mb - 0.00 in0.0 mm 0.00 in0.0 mm
11:20 PM 59.7°F15.4°C 50.7°F10.4°C 72% 2.3 mph W3.7 kmh W 3.5 mph5.6 kmh 29.86 in1011.2 mb - 0.00 in0.0 mm 0.00 in0.0 mm
11:30 PM 59.4°F15.2°C 50.3°F10.2°C 72% Calm Calm -- 29.86 in1011.2 mb - 0.00 in0.0 mm 0.00 in0.0 mm
11:40 PM 58.8°F14.9°C 50.2°F10.1°C 73% 1.2 mph SW1.9 kmh SW 3.5 mph5.6 kmh 29.86 in1011.2 mb - 0.00 in0.0 mm 0.00 in0.0 mm
11:50 PM 58.5°F14.7°C 49.8°F9.9°C 73% 2.3 mph SSW3.7 kmh SSW 3.5 mph5.6 kmh 29.86 in1011.2 mb - 0.00 in0.0 mm 0.00 in0.0 mm